sensor_id;sensor_type;location;lat;lon;timestamp;temperature;humidity
36458;DHT22;22480;50.546;12.292;2023-02-14T00:01:11;-0.80;99.90
36458;DHT22;22480;50.546;12.292;2023-02-14T00:03:38;-0.80;99.90
36458;DHT22;22480;50.546;12.292;2023-02-14T00:06:13;-0.80;99.90
36458;DHT22;22480;50.546;12.292;2023-02-14T00:08:40;-0.80;99.90
36458;DHT22;22480;50.546;12.292;2023-02-14T00:11:09;-0.80;99.90
36458;DHT22;22480;50.546;12.292;2023-02-14T00:13:35;-0.90;99.90
36458;DHT22;22480;50.546;12.292;2023-02-14T00:16:00;-1.10;99.90
36458;DHT22;22480;50.546;12.292;2023-02-14T00:18:26;-1.20;99.90
36458;DHT22;22480;50.546;12.292;2023-02-14T00:21:12;-1.20;99.90
36458;DHT22;22480;50.546;12.292;2023-02-14T00:23:38;-1.20;99.90
36458;DHT22;22480;50.546;12.292;2023-02-14T00:26:04;-1.10;99.90
36458;DHT22;22480;50.546;12.292;2023-02-14T00:28:29;-1.00;99.90
36458;DHT22;22480;50.546;12.292;2023-02-14T00:30:56;-0.90;99.90
36458;DHT22;22480;50.546;12.292;2023-02-14T00:33:22;-0.80;99.90
36458;DHT22;22480;50.546;12.292;2023-02-14T00:35:47;-1.00;99.90
36458;DHT22;22480;50.546;12.292;2023-02-14T00:38:13;-1.10;99.90
36458;DHT22;22480;50.546;12.292;2023-02-14T00:40:39;-1.30;99.90
36458;DHT22;22480;50.546;12.292;2023-02-14T00:43:05;-1.40;99.90
36458;DHT22;22480;50.546;12.292;2023-02-14T00:45:30;-1.40;99.90
36458;DHT22;22480;50.546;12.292;2023-02-14T00:47:56;-1.30;99.90
36458;DHT22;22480;50.546;12.292;2023-02-14T00:50:22;-1.30;99.90
36458;DHT22;22480;50.546;12.292;2023-02-14T00:52:50;-1.40;99.90
36458;DHT22;22480;50.546;12.292;2023-02-14T00:55:16;-1.50;99.90
36458;DHT22;22480;50.546;12.292;2023-02-14T00:57:41;-1.60;99.90
36458;DHT22;22480;50.546;12.292;2023-02-14T01:00:07;-1.50;99.90
36458;DHT22;22480;50.546;12.292;2023-02-14T01:02:33;-1.10;99.90
36458;DHT22;22480;50.546;12.292;2023-02-14T01:04:59;-0.90;99.90
36458;DHT22;22480;50.546;12.292;2023-02-14T01:07:25;-1.00;99.90
36458;DHT22;22480;50.546;12.292;2023-02-14T01:09:50;-1.10;99.90
36458;DHT22;22480;50.546;12.292;2023-02-14T01:12:16;-1.30;99.90
36458;DHT22;22480;50.546;12.292;2023-02-14T01:14:42;-1.30;99.90
36458;DHT22;22480;50.546;12.292;2023-02-14T01:17:07;-1.40;99.90
36458;DHT22;22480;50.546;12.292;2023-02-14T01:19:33;-1.40;99.90
36458;DHT22;22480;50.546;12.292;2023-02-14T01:21:59;-1.50;99.90
36458;DHT22;22480;50.546;12.292;2023-02-14T01:24:24;-1.50;99.90
36458;DHT22;22480;50.546;12.292;2023-02-14T01:26:51;-1.40;99.90
36458;DHT22;22480;50.546;12.292;2023-02-14T01:29:16;-1.40;99.90
36458;DHT22;22480;50.546;12.292;2023-02-14T01:31:42;-1.30;99.90
36458;DHT22;22480;50.546;12.292;2023-02-14T01:34:09;-1.20;99.90
36458;DHT22;22480;50.546;12.292;2023-02-14T01:36:37;-1.20;99.90
36458;DHT22;22480;50.546;12.292;2023-02-14T01:39:06;-1.40;99.90
36458;DHT22;22480;50.546;12.292;2023-02-14T01:41:33;-1.50;99.90
36458;DHT22;22480;50.546;12.292;2023-02-14T01:44:05;-1.40;99.90
36458;DHT22;22480;50.546;12.292;2023-02-14T01:46:36;-1.40;99.90
36458;DHT22;22480;50.546;12.292;2023-02-14T01:49:08;-1.30;99.90
36458;DHT22;22480;50.546;12.292;2023-02-14T01:51:37;-1.30;99.90
36458;DHT22;22480;50.546;12.292;2023-02-14T01:54:05;-1.40;99.90
36458;DHT22;22480;50.546;12.292;2023-02-14T01:56:35;-1.50;99.90
36458;DHT22;22480;50.546;12.292;2023-02-14T01:59:05;-1.60;99.90
36458;DHT22;22480;50.546;12.292;2023-02-14T02:01:32;-1.60;99.90
36458;DHT22;22480;50.546;12.292;2023-02-14T02:04:13;-1.70;99.90
36458;DHT22;22480;50.546;12.292;2023-02-14T02:06:43;-1.90;99.90
36458;DHT22;22480;50.546;12.292;2023-02-14T02:09:14;-2.00;99.90
36458;DHT22;22480;50.546;12.292;2023-02-14T02:11:41;-2.10;99.90
36458;DHT22;22480;50.546;12.292;2023-02-14T02:14:18;-2.20;99.90
36458;DHT22;22480;50.546;12.292;2023-02-14T02:22:24;-2.50;99.90
36458;DHT22;22480;50.546;12.292;2023-02-14T02:25:28;-2.30;99.90
36458;DHT22;22480;50.546;12.292;2023-02-14T02:45:12;-2.90;99.90
36458;DHT22;22480;50.546;12.292;2023-02-14T02:50:44;-2.80;99.90
36458;DHT22;22480;50.546;12.292;2023-02-14T02:56:09;-2.70;99.90
36458;DHT22;22480;50.546;12.292;2023-02-14T02:58:59;-2.80;99.90
36458;DHT22;22480;50.546;12.292;2023-02-14T03:01:33;-2.80;99.90
36458;DHT22;22480;50.546;12.292;2023-02-14T03:04:02;-2.80;99.90
36458;DHT22;22480;50.546;12.292;2023-02-14T03:06:48;-2.80;99.90
36458;DHT22;22480;50.546;12.292;2023-02-14T03:20:45;-3.00;99.90
36458;DHT22;22480;50.546;12.292;2023-02-14T03:23:22;-2.90;99.90
36458;DHT22;22480;50.546;12.292;2023-02-14T03:26:04;-2.90;99.90
36458;DHT22;22480;50.546;12.292;2023-02-14T03:39:45;-2.80;99.90
36458;DHT22;22480;50.546;12.292;2023-02-14T03:42:26;-2.70;99.90
36458;DHT22;22480;50.546;12.292;2023-02-14T03:44:54;-2.60;99.90
36458;DHT22;22480;50.546;12.292;2023-02-14T03:47:24;-2.70;99.90
36458;DHT22;22480;50.546;12.292;2023-02-14T03:49:55;-2.80;99.90
36458;DHT22;22480;50.546;12.292;2023-02-14T03:52:23;-2.80;99.90
36458;DHT22;22480;50.546;12.292;2023-02-14T03:54:52;-2.90;99.90
36458;DHT22;22480;50.546;12.292;2023-02-14T03:57:25;-3.10;99.90
36458;DHT22;22480;50.546;12.292;2023-02-14T03:59:52;-3.20;99.90
36458;DHT22;22480;50.546;12.292;2023-02-14T04:02:32;-3.20;99.90
36458;DHT22;22480;50.546;12.292;2023-02-14T04:05:00;-3.30;99.90
36458;DHT22;22480;50.546;12.292;2023-02-14T04:07:27;-3.20;99.90
36458;DHT22;22480;50.546;12.292;2023-02-14T04:09:53;-3.10;99.90
36458;DHT22;22480;50.546;12.292;2023-02-14T04:12:19;-3.00;99.90
36458;DHT22;22480;50.546;12.292;2023-02-14T04:14:44;-3.10;99.90
36458;DHT22;22480;50.546;12.292;2023-02-14T04:17:10;-3.20;99.90
36458;DHT22;22480;50.546;12.292;2023-02-14T04:19:54;-3.20;99.90
36458;DHT22;22480;50.546;12.292;2023-02-14T04:22:20;-3.20;99.90
36458;DHT22;22480;50.546;12.292;2023-02-14T04:24:46;-3.10;99.90
36458;DHT22;22480;50.546;12.292;2023-02-14T04:27:11;-3.10;99.90
36458;DHT22;22480;50.546;12.292;2023-02-14T04:29:48;-3.30;99.90
36458;DHT22;22480;50.546;12.292;2023-02-14T04:32:16;-3.30;99.90
36458;DHT22;22480;50.546;12.292;2023-02-14T04:34:42;-3.30;99.90
36458;DHT22;22480;50.546;12.292;2023-02-14T04:37:08;-3.30;99.90
36458;DHT22;22480;50.546;12.292;2023-02-14T04:39:34;-3.20;99.90
36458;DHT22;22480;50.546;12.292;2023-02-14T04:42:01;-3.10;99.90
36458;DHT22;22480;50.546;12.292;2023-02-14T04:44:27;-3.20;99.90
36458;DHT22;22480;50.546;12.292;2023-02-14T04:46:53;-3.20;99.90
36458;DHT22;22480;50.546;12.292;2023-02-14T04:49:18;-3.10;99.90
36458;DHT22;22480;50.546;12.292;2023-02-14T04:51:44;-3.10;99.90
36458;DHT22;22480;50.546;12.292;2023-02-14T04:54:10;-3.10;99.90
36458;DHT22;22480;50.546;12.292;2023-02-14T04:56:36;-3.10;99.90
36458;DHT22;22480;50.546;12.292;2023-02-14T04:59:02;-3.00;99.90
36458;DHT22;22480;50.546;12.292;2023-02-14T05:01:27;-2.90;99.90
36458;DHT22;22480;50.546;12.292;2023-02-14T05:03:53;-2.90;99.90
36458;DHT22;22480;50.546;12.292;2023-02-14T05:06:19;-3.00;99.90
36458;DHT22;22480;50.546;12.292;2023-02-14T05:08:44;-2.90;99.90
36458;DHT22;22480;50.546;12.292;2023-02-14T05:11:11;-2.90;99.90
36458;DHT22;22480;50.546;12.292;2023-02-14T05:13:37;-2.90;99.90
36458;DHT22;22480;50.546;12.292;2023-02-14T05:16:03;-3.00;99.90
36458;DHT22;22480;50.546;12.292;2023-02-14T05:18:29;-3.10;99.90
36458;DHT22;22480;50.546;12.292;2023-02-14T05:20:54;-3.30;99.90
36458;DHT22;22480;50.546;12.292;2023-02-14T05:23:21;-3.30;99.90
36458;DHT22;22480;50.546;12.292;2023-02-14T05:25:47;-3.40;99.90
36458;DHT22;22480;50.546;12.292;2023-02-14T05:28:14;-3.30;99.90
36458;DHT22;22480;50.546;12.292;2023-02-14T05:30:39;-3.30;99.90
36458;DHT22;22480;50.546;12.292;2023-02-14T05:33:05;-3.20;99.90
36458;DHT22;22480;50.546;12.292;2023-02-14T05:35:31;-3.30;99.90
36458;DHT22;22480;50.546;12.292;2023-02-14T05:37:57;-3.30;99.90
36458;DHT22;22480;50.546;12.292;2023-02-14T05:40:23;-3.40;99.90
36458;DHT22;22480;50.546;12.292;2023-02-14T05:42:51;-3.30;99.90
36458;DHT22;22480;50.546;12.292;2023-02-14T05:45:17;-3.30;99.90
36458;DHT22;22480;50.546;12.292;2023-02-14T05:47:43;-3.20;99.90
36458;DHT22;22480;50.546;12.292;2023-02-14T05:50:09;-3.20;99.90
36458;DHT22;22480;50.546;12.292;2023-02-14T05:52:36;-3.20;99.90
36458;DHT22;22480;50.546;12.292;2023-02-14T05:55:02;-3.30;99.90
36458;DHT22;22480;50.546;12.292;2023-02-14T05:57:28;-3.30;99.90
36458;DHT22;22480;50.546;12.292;2023-02-14T05:59:54;-3.40;99.90
36458;DHT22;22480;50.546;12.292;2023-02-14T06:02:19;-3.20;99.90
36458;DHT22;22480;50.546;12.292;2023-02-14T06:04:45;-3.00;99.90
36458;DHT22;22480;50.546;12.292;2023-02-14T06:07:11;-2.70;99.90
36458;DHT22;22480;50.546;12.292;2023-02-14T06:09:36;-2.70;99.90
36458;DHT22;22480;50.546;12.292;2023-02-14T06:12:02;-2.60;99.90
36458;DHT22;22480;50.546;12.292;2023-02-14T06:14:28;-2.60;99.90
36458;DHT22;22480;50.546;12.292;2023-02-14T06:16:53;-2.40;99.90
36458;DHT22;22480;50.546;12.292;2023-02-14T06:19:19;-2.40;99.90
36458;DHT22;22480;50.546;12.292;2023-02-14T06:21:45;-2.30;99.90
36458;DHT22;22480;50.546;12.292;2023-02-14T06:24:11;-2.40;99.90
36458;DHT22;22480;50.546;12.292;2023-02-14T06:26:36;-2.30;99.90
36458;DHT22;22480;50.546;12.292;2023-02-14T06:29:03;-2.20;99.90
36458;DHT22;22480;50.546;12.292;2023-02-14T06:31:29;-2.10;99.90
36458;DHT22;22480;50.546;12.292;2023-02-14T06:33:54;-2.10;99.90
36458;DHT22;22480;50.546;12.292;2023-02-14T06:36:21;-2.10;99.90
36458;DHT22;22480;50.546;12.292;2023-02-14T06:38:47;-2.10;99.90
36458;DHT22;22480;50.546;12.292;2023-02-14T06:41:14;-1.90;99.90
36458;DHT22;22480;50.546;12.292;2023-02-14T06:43:42;-1.70;99.90
36458;DHT22;22480;50.546;12.292;2023-02-14T06:46:09;-1.50;99.90
36458;DHT22;22480;50.546;12.292;2023-02-14T06:48:35;-1.40;99.90
36458;DHT22;22480;50.546;12.292;2023-02-14T06:51:00;-1.30;99.90
36458;DHT22;22480;50.546;12.292;2023-02-14T06:53:26;-1.30;99.90
36458;DHT22;22480;50.546;12.292;2023-02-14T06:55:52;-1.10;99.90
36458;DHT22;22480;50.546;12.292;2023-02-14T06:58:18;-1.20;99.90
36458;DHT22;22480;50.546;12.292;2023-02-14T07:00:45;-1.10;99.90
36458;DHT22;22480;50.546;12.292;2023-02-14T07:03:10;-1.20;99.90
36458;DHT22;22480;50.546;12.292;2023-02-14T07:05:38;-1.10;99.90
36458;DHT22;22480;50.546;12.292;2023-02-14T07:08:04;-1.10;99.90
36458;DHT22;22480;50.546;12.292;2023-02-14T07:10:32;-1.00;99.90
36458;DHT22;22480;50.546;12.292;2023-02-14T07:12:59;-1.00;99.90
36458;DHT22;22480;50.546;12.292;2023-02-14T07:15:25;-0.90;99.90
36458;DHT22;22480;50.546;12.292;2023-02-14T07:17:50;-0.90;99.90
36458;DHT22;22480;50.546;12.292;2023-02-14T07:20:17;-0.90;99.90
36458;DHT22;22480;50.546;12.292;2023-02-14T07:22:43;-0.90;99.90
36458;DHT22;22480;50.546;12.292;2023-02-14T07:25:09;-0.80;99.90
36458;DHT22;22480;50.546;12.292;2023-02-14T07:27:35;-0.80;99.90
36458;DHT22;22480;50.546;12.292;2023-02-14T07:30:01;-0.80;99.90
36458;DHT22;22480;50.546;12.292;2023-02-14T07:32:26;-0.70;99.90
36458;DHT22;22480;50.546;12.292;2023-02-14T07:34:52;-0.60;99.90
36458;DHT22;22480;50.546;12.292;2023-02-14T07:37:18;-0.50;99.90
36458;DHT22;22480;50.546;12.292;2023-02-14T07:39:44;-0.50;99.90
36458;DHT22;22480;50.546;12.292;2023-02-14T07:42:10;-0.40;99.90
36458;DHT22;22480;50.546;12.292;2023-02-14T07:44:37;-0.30;99.90
36458;DHT22;22480;50.546;12.292;2023-02-14T07:47:04;-0.20;99.90
36458;DHT22;22480;50.546;12.292;2023-02-14T07:49:30;-0.20;99.90
36458;DHT22;22480;50.546;12.292;2023-02-14T07:51:56;-0.10;99.90
36458;DHT22;22480;50.546;12.292;2023-02-14T07:54:22;-0.10;99.90
36458;DHT22;22480;50.546;12.292;2023-02-14T07:56:48;0.00;99.90
36458;DHT22;22480;50.546;12.292;2023-02-14T07:59:14;0.10;99.90
36458;DHT22;22480;50.546;12.292;2023-02-14T08:01:39;0.10;99.90
36458;DHT22;22480;50.546;12.292;2023-02-14T08:04:05;0.10;99.90
36458;DHT22;22480;50.546;12.292;2023-02-14T08:06:31;0.10;99.90
36458;DHT22;22480;50.546;12.292;2023-02-14T08:08:56;0.20;99.90
36458;DHT22;22480;50.546;12.292;2023-02-14T08:11:22;0.30;99.90
36458;DHT22;22480;50.546;12.292;2023-02-14T08:14:06;0.30;99.90
36458;DHT22;22480;50.546;12.292;2023-02-14T08:16:32;0.40;99.90
36458;DHT22;22480;50.546;12.292;2023-02-14T08:18:59;0.40;99.90
36458;DHT22;22480;50.546;12.292;2023-02-14T08:21:25;0.40;99.90
36458;DHT22;22480;50.546;12.292;2023-02-14T08:23:51;0.50;99.90
36458;DHT22;22480;50.546;12.292;2023-02-14T08:26:17;0.50;99.90
36458;DHT22;22480;50.546;12.292;2023-02-14T08:28:43;0.50;99.90
36458;DHT22;22480;50.546;12.292;2023-02-14T08:31:09;0.60;99.90
36458;DHT22;22480;50.546;12.292;2023-02-14T08:33:35;0.60;99.90
36458;DHT22;22480;50.546;12.292;2023-02-14T08:36:01;0.70;99.90
36458;DHT22;22480;50.546;12.292;2023-02-14T08:38:27;0.70;99.90
36458;DHT22;22480;50.546;12.292;2023-02-14T08:40:53;0.70;99.90
36458;DHT22;22480;50.546;12.292;2023-02-14T08:43:19;0.80;99.90
36458;DHT22;22480;50.546;12.292;2023-02-14T08:45:45;0.80;99.90
36458;DHT22;22480;50.546;12.292;2023-02-14T08:48:12;0.90;99.90
36458;DHT22;22480;50.546;12.292;2023-02-14T08:50:39;0.90;99.90
36458;DHT22;22480;50.546;12.292;2023-02-14T08:53:09;1.00;99.90
36458;DHT22;22480;50.546;12.292;2023-02-14T08:55:36;1.00;99.90
36458;DHT22;22480;50.546;12.292;2023-02-14T08:58:02;1.10;99.90
36458;DHT22;22480;50.546;12.292;2023-02-14T09:00:28;1.10;99.90
36458;DHT22;22480;50.546;12.292;2023-02-14T09:02:54;1.20;99.90
36458;DHT22;22480;50.546;12.292;2023-02-14T09:05:20;1.30;99.90
36458;DHT22;22480;50.546;12.292;2023-02-14T09:07:48;1.40;99.90
36458;DHT22;22480;50.546;12.292;2023-02-14T09:10:14;1.60;99.90
36458;DHT22;22480;50.546;12.292;2023-02-14T09:12:41;1.70;99.90
36458;DHT22;22480;50.546;12.292;2023-02-14T09:15:08;1.80;99.90
36458;DHT22;22480;50.546;12.292;2023-02-14T09:17:34;1.90;99.90
36458;DHT22;22480;50.546;12.292;2023-02-14T09:20:00;2.00;99.90
36458;DHT22;22480;50.546;12.292;2023-02-14T09:22:26;2.10;99.90
36458;DHT22;22480;50.546;12.292;2023-02-14T09:24:52;2.20;99.90
36458;DHT22;22480;50.546;12.292;2023-02-14T09:27:18;2.30;99.90
36458;DHT22;22480;50.546;12.292;2023-02-14T09:29:43;2.40;99.90
36458;DHT22;22480;50.546;12.292;2023-02-14T09:32:09;2.50;99.90
36458;DHT22;22480;50.546;12.292;2023-02-14T09:34:35;2.60;99.90
36458;DHT22;22480;50.546;12.292;2023-02-14T09:37:01;2.70;99.90
36458;DHT22;22480;50.546;12.292;2023-02-14T09:39:26;2.80;99.90
36458;DHT22;22480;50.546;12.292;2023-02-14T09:42:11;3.00;99.90
36458;DHT22;22480;50.546;12.292;2023-02-14T09:44:52;3.50;99.90
36458;DHT22;22480;50.546;12.292;2023-02-14T09:50:05;5.20;99.90
36458;DHT22;22480;50.546;12.292;2023-02-14T09:52:32;5.90;99.90
36458;DHT22;22480;50.546;12.292;2023-02-14T09:55:00;6.10;99.90
36458;DHT22;22480;50.546;12.292;2023-02-14T09:57:38;6.60;99.90
36458;DHT22;22480;50.546;12.292;2023-02-14T10:00:34;7.30;99.90
36458;DHT22;22480;50.546;12.292;2023-02-14T10:03:37;7.70;99.90
36458;DHT22;22480;50.546;12.292;2023-02-14T10:06:47;8.20;99.90
36458;DHT22;22480;50.546;12.292;2023-02-14T10:09:41;8.70;99.90
36458;DHT22;22480;50.546;12.292;2023-02-14T10:12:23;9.30;99.90
36458;DHT22;22480;50.546;12.292;2023-02-14T10:14:52;9.70;99.90
36458;DHT22;22480;50.546;12.292;2023-02-14T10:17:35;10.20;99.90
36458;DHT22;22480;50.546;12.292;2023-02-14T10:20:13;10.70;99.90
36458;DHT22;22480;50.546;12.292;2023-02-14T10:22:45;11.30;99.90
36458;DHT22;22480;50.546;12.292;2023-02-14T10:25:25;11.10;99.90
36458;DHT22;22480;50.546;12.292;2023-02-14T10:27:55;11.30;99.90
36458;DHT22;22480;50.546;12.292;2023-02-14T10:30:22;11.30;99.90
36458;DHT22;22480;50.546;12.292;2023-02-14T10:33:17;11.70;99.90
36458;DHT22;22480;50.546;12.292;2023-02-14T10:35:51;11.80;99.90
36458;DHT22;22480;50.546;12.292;2023-02-14T10:41:13;12.60;99.90
36458;DHT22;22480;50.546;12.292;2023-02-14T10:49:35;13.10;99.90
36458;DHT22;22480;50.546;12.292;2023-02-14T10:54:49;13.70;99.90
36458;DHT22;22480;50.546;12.292;2023-02-14T10:57:28;13.80;99.90
36458;DHT22;22480;50.546;12.292;2023-02-14T11:00:00;14.00;99.90
36458;DHT22;22480;50.546;12.292;2023-02-14T11:02:36;14.70;99.90
36458;DHT22;22480;50.546;12.292;2023-02-14T11:05:05;15.20;99.90
36458;DHT22;22480;50.546;12.292;2023-02-14T11:07:31;15.10;99.90
36458;DHT22;22480;50.546;12.292;2023-02-14T11:09:57;15.40;99.90
36458;DHT22;22480;50.546;12.292;2023-02-14T11:12:38;16.20;99.90
36458;DHT22;22480;50.546;12.292;2023-02-14T11:15:34;16.70;99.90
36458;DHT22;22480;50.546;12.292;2023-02-14T11:18:24;17.00;99.90
36458;DHT22;22480;50.546;12.292;2023-02-14T11:21:01;17.50;99.90
36458;DHT22;22480;50.546;12.292;2023-02-14T11:23:32;17.80;99.90
36458;DHT22;22480;50.546;12.292;2023-02-14T11:25:58;18.00;98.90
36458;DHT22;22480;50.546;12.292;2023-02-14T11:28:25;18.30;99.90
36458;DHT22;22480;50.546;12.292;2023-02-14T11:30:51;18.30;99.90
36458;DHT22;22480;50.546;12.292;2023-02-14T11:33:37;18.40;99.90
36458;DHT22;22480;50.546;12.292;2023-02-14T11:36:09;18.40;91.00
36458;DHT22;22480;50.546;12.292;2023-02-14T11:38:36;18.30;99.90
36458;DHT22;22480;50.546;12.292;2023-02-14T11:41:09;18.30;99.90
36458;DHT22;22480;50.546;12.292;2023-02-14T11:43:41;18.90;99.90
36458;DHT22;22480;50.546;12.292;2023-02-14T11:46:30;19.50;96.70
36458;DHT22;22480;50.546;12.292;2023-02-14T11:49:05;19.70;92.10
36458;DHT22;22480;50.546;12.292;2023-02-14T11:51:41;19.40;90.60
36458;DHT22;22480;50.546;12.292;2023-02-14T11:54:27;19.80;99.90
36458;DHT22;22480;50.546;12.292;2023-02-14T11:56:56;20.50;93.60
36458;DHT22;22480;50.546;12.292;2023-02-14T11:59:36;20.80;82.00
36458;DHT22;22480;50.546;12.292;2023-02-14T12:02:29;20.80;65.60
36458;DHT22;22480;50.546;12.292;2023-02-14T12:04:59;19.90;76.30
36458;DHT22;22480;50.546;12.292;2023-02-14T12:07:28;19.40;81.50
36458;DHT22;22480;50.546;12.292;2023-02-14T12:21:39;20.60;81.20
36458;DHT22;22480;50.546;12.292;2023-02-14T12:24:19;20.80;73.30
36458;DHT22;22480;50.546;12.292;2023-02-14T12:29:29;21.20;86.70
36458;DHT22;22480;50.546;12.292;2023-02-14T12:32:27;21.20;60.50
36458;DHT22;22480;50.546;12.292;2023-02-14T12:35:15;21.20;66.20
36458;DHT22;22480;50.546;12.292;2023-02-14T12:38:22;21.50;60.00
36458;DHT22;22480;50.546;12.292;2023-02-14T12:43:54;21.80;71.00
36458;DHT22;22480;50.546;12.292;2023-02-14T13:11:44;22.70;60.60
36458;DHT22;22480;50.546;12.292;2023-02-14T13:17:08;22.50;55.80
36458;DHT22;22480;50.546;12.292;2023-02-14T13:22:24;22.10;60.30
36458;DHT22;22480;50.546;12.292;2023-02-14T13:25:05;22.50;56.50
36458;DHT22;22480;50.546;12.292;2023-02-14T13:27:38;22.30;58.40
36458;DHT22;22480;50.546;12.292;2023-02-14T13:30:18;22.10;54.60
36458;DHT22;22480;50.546;12.292;2023-02-14T13:32:47;22.50;61.70
36458;DHT22;22480;50.546;12.292;2023-02-14T13:35:16;22.50;55.70
36458;DHT22;22480;50.546;12.292;2023-02-14T13:37:50;22.20;56.60
36458;DHT22;22480;50.546;12.292;2023-02-14T13:40:27;22.10;61.50
36458;DHT22;22480;50.546;12.292;2023-02-14T13:42:58;22.30;61.30
36458;DHT22;22480;50.546;12.292;2023-02-14T13:50:37;21.50;59.10
36458;DHT22;22480;50.546;12.292;2023-02-14T13:53:04;21.40;54.20
36458;DHT22;22480;50.546;12.292;2023-02-14T13:55:34;21.90;60.10
36458;DHT22;22480;50.546;12.292;2023-02-14T14:00:43;22.80;54.70
36458;DHT22;22480;50.546;12.292;2023-02-14T14:10:54;22.60;58.50
36458;DHT22;22480;50.546;12.292;2023-02-14T14:19:02;22.10;51.20
36458;DHT22;22480;50.546;12.292;2023-02-14T14:21:31;21.70;56.90
36458;DHT22;22480;50.546;12.292;2023-02-14T14:24:23;21.70;56.30
36458;DHT22;22480;50.546;12.292;2023-02-14T14:29:55;22.20;65.00
36458;DHT22;22480;50.546;12.292;2023-02-14T14:32:27;22.00;57.50
36458;DHT22;22480;50.546;12.292;2023-02-14T14:37:34;22.30;58.00
36458;DHT22;22480;50.546;12.292;2023-02-14T14:40:05;22.00;53.90
36458;DHT22;22480;50.546;12.292;2023-02-14T14:42:37;21.50;60.00
36458;DHT22;22480;50.546;12.292;2023-02-14T14:45:19;21.20;57.70
36458;DHT22;22480;50.546;12.292;2023-02-14T14:47:46;20.90;58.40
36458;DHT22;22480;50.546;12.292;2023-02-14T14:50:33;20.90;56.50
36458;DHT22;22480;50.546;12.292;2023-02-14T14:53:03;20.70;56.80
36458;DHT22;22480;50.546;12.292;2023-02-14T14:55:32;20.70;59.40
36458;DHT22;22480;50.546;12.292;2023-02-14T14:58:01;20.70;59.50
36458;DHT22;22480;50.546;12.292;2023-02-14T15:00:36;20.60;63.20
36458;DHT22;22480;50.546;12.292;2023-02-14T15:03:06;20.80;61.00
36458;DHT22;22480;50.546;12.292;2023-02-14T15:10:52;20.70;61.50
36458;DHT22;22480;50.546;12.292;2023-02-14T15:13:29;20.80;64.90
36458;DHT22;22480;50.546;12.292;2023-02-14T15:19:07;20.50;62.70
36458;DHT22;22480;50.546;12.292;2023-02-14T15:21:33;20.50;66.80
36458;DHT22;22480;50.546;12.292;2023-02-14T15:24:01;20.30;63.70
36458;DHT22;22480;50.546;12.292;2023-02-14T15:26:30;20.40;64.60
36458;DHT22;22480;50.546;12.292;2023-02-14T15:28:59;20.00;58.50
36458;DHT22;22480;50.546;12.292;2023-02-14T15:31:30;19.50;64.70
36458;DHT22;22480;50.546;12.292;2023-02-14T15:33:58;19.50;68.90
36458;DHT22;22480;50.546;12.292;2023-02-14T15:36:25;19.30;68.20
36458;DHT22;22480;50.546;12.292;2023-02-14T15:38:53;19.20;66.50
36458;DHT22;22480;50.546;12.292;2023-02-14T15:41:21;18.90;64.70
36458;DHT22;22480;50.546;12.292;2023-02-14T15:43:53;18.70;70.80
36458;DHT22;22480;50.546;12.292;2023-02-14T15:48:48;17.10;66.80
36458;DHT22;22480;50.546;12.292;2023-02-14T15:51:23;15.70;76.30
36458;DHT22;22480;50.546;12.292;2023-02-14T15:53:53;14.30;89.40
36458;DHT22;22480;50.546;12.292;2023-02-14T15:56:23;13.00;94.40
36458;DHT22;22480;50.546;12.292;2023-02-14T15:58:58;11.90;99.90
36458;DHT22;22480;50.546;12.292;2023-02-14T16:01:24;11.00;99.90
36458;DHT22;22480;50.546;12.292;2023-02-14T16:03:54;10.20;99.90
36458;DHT22;22480;50.546;12.292;2023-02-14T16:06:35;9.60;99.90
36458;DHT22;22480;50.546;12.292;2023-02-14T16:09:02;9.00;99.90
36458;DHT22;22480;50.546;12.292;2023-02-14T16:11:31;8.60;99.90
36458;DHT22;22480;50.546;12.292;2023-02-14T16:14:32;8.10;99.90
36458;DHT22;22480;50.546;12.292;2023-02-14T16:17:12;7.80;99.90
36458;DHT22;22480;50.546;12.292;2023-02-14T16:19:40;7.50;99.90
36458;DHT22;22480;50.546;12.292;2023-02-14T16:22:25;7.10;99.90
36458;DHT22;22480;50.546;12.292;2023-02-14T16:24:51;6.90;99.90
36458;DHT22;22480;50.546;12.292;2023-02-14T16:27:16;6.70;99.90
36458;DHT22;22480;50.546;12.292;2023-02-14T16:29:42;6.40;99.90
36458;DHT22;22480;50.546;12.292;2023-02-14T16:32:19;6.20;99.90
36458;DHT22;22480;50.546;12.292;2023-02-14T16:34:46;5.90;99.90
36458;DHT22;22480;50.546;12.292;2023-02-14T16:37:22;5.80;99.90
36458;DHT22;22480;50.546;12.292;2023-02-14T16:39:52;5.70;99.90
36458;DHT22;22480;50.546;12.292;2023-02-14T16:42:19;5.60;99.90
36458;DHT22;22480;50.546;12.292;2023-02-14T16:44:45;5.60;99.90
36458;DHT22;22480;50.546;12.292;2023-02-14T16:47:13;5.50;99.90
36458;DHT22;22480;50.546;12.292;2023-02-14T16:49:39;5.40;99.90
36458;DHT22;22480;50.546;12.292;2023-02-14T16:52:11;5.40;99.90
36458;DHT22;22480;50.546;12.292;2023-02-14T16:54:37;5.20;99.90
36458;DHT22;22480;50.546;12.292;2023-02-14T16:57:04;5.10;99.90
36458;DHT22;22480;50.546;12.292;2023-02-14T16:59:30;5.10;99.90
36458;DHT22;22480;50.546;12.292;2023-02-14T17:01:57;5.00;99.90
36458;DHT22;22480;50.546;12.292;2023-02-14T17:04:22;4.90;99.90
36458;DHT22;22480;50.546;12.292;2023-02-14T17:06:52;4.90;99.90
36458;DHT22;22480;50.546;12.292;2023-02-14T17:09:23;4.80;99.90
36458;DHT22;22480;50.546;12.292;2023-02-14T17:11:53;4.60;99.90
36458;DHT22;22480;50.546;12.292;2023-02-14T17:14:23;4.40;99.90
36458;DHT22;22480;50.546;12.292;2023-02-14T17:16:51;4.10;99.90
36458;DHT22;22480;50.546;12.292;2023-02-14T17:19:17;3.80;99.90
36458;DHT22;22480;50.546;12.292;2023-02-14T17:21:43;3.60;99.90
36458;DHT22;22480;50.546;12.292;2023-02-14T17:24:09;3.40;99.90
36458;DHT22;22480;50.546;12.292;2023-02-14T17:26:34;3.20;99.90
36458;DHT22;22480;50.546;12.292;2023-02-14T17:29:03;3.10;99.90
36458;DHT22;22480;50.546;12.292;2023-02-14T17:31:28;3.00;99.90
36458;DHT22;22480;50.546;12.292;2023-02-14T17:33:54;2.80;99.90
36458;DHT22;22480;50.546;12.292;2023-02-14T17:36:20;2.60;99.90
36458;DHT22;22480;50.546;12.292;2023-02-14T17:38:47;2.50;99.90
36458;DHT22;22480;50.546;12.292;2023-02-14T17:41:16;2.60;99.90
36458;DHT22;22480;50.546;12.292;2023-02-14T17:43:43;2.70;99.90
36458;DHT22;22480;50.546;12.292;2023-02-14T17:46:10;2.60;99.90
36458;DHT22;22480;50.546;12.292;2023-02-14T17:48:39;2.60;99.90
36458;DHT22;22480;50.546;12.292;2023-02-14T17:51:07;2.50;99.90
36458;DHT22;22480;50.546;12.292;2023-02-14T17:53:33;2.30;99.90
36458;DHT22;22480;50.546;12.292;2023-02-14T17:56:12;2.20;99.90
36458;DHT22;22480;50.546;12.292;2023-02-14T17:58:39;2.00;99.90
36458;DHT22;22480;50.546;12.292;2023-02-14T18:01:06;1.90;99.90
36458;DHT22;22480;50.546;12.292;2023-02-14T18:03:33;1.70;99.90
36458;DHT22;22480;50.546;12.292;2023-02-14T18:06:00;1.60;99.90
36458;DHT22;22480;50.546;12.292;2023-02-14T18:08:30;1.60;99.90